createdAt,value
2023-04-06T00:00:24.913Z,16.65
2023-04-06T00:01:21.611Z,15.45
2023-04-06T00:02:18.333Z,14.93
2023-04-06T00:03:15.600Z,16.63
2023-04-06T00:04:12.420Z,17.67
2023-04-06T00:05:09.484Z,16.70
2023-04-06T00:06:06.551Z,15.50
2023-04-06T00:07:03.166Z,15.80
2023-04-06T00:07:59.856Z,17.02
2023-04-06T00:08:57.105Z,16.65
2023-04-06T00:09:53.690Z,15.13
2023-04-06T00:10:50.419Z,16.45
2023-04-06T00:11:47.061Z,17.52
2023-04-06T00:12:44.256Z,16.30
2023-04-06T00:13:40.929Z,15.95
2023-04-06T00:14:37.533Z,16.38
2023-04-06T00:15:34.837Z,15.27
2023-04-06T00:16:31.500Z,16.27
2023-04-06T00:17:29.079Z,15.70
2023-04-06T00:18:25.793Z,14.90
2023-04-06T00:19:22.483Z,15.18
2023-04-06T00:20:19.823Z,15.45
2023-04-06T00:21:16.563Z,15.95
2023-04-06T00:22:13.256Z,15.80
2023-04-06T00:23:09.872Z,15.98
2023-04-06T00:24:06.745Z,16.17
2023-04-06T00:25:03.544Z,16.80
2023-04-06T00:26:00.427Z,16.15
2023-04-06T00:26:57.160Z,16.58
2023-04-06T00:27:53.795Z,15.95
2023-04-06T00:28:51.682Z,16.15
2023-04-06T00:29:48.310Z,15.88
2023-04-06T00:30:44.961Z,15.15
2023-04-06T00:31:41.696Z,16.23
2023-04-06T00:32:38.538Z,15.02
2023-04-06T00:33:35.152Z,15.07
2023-04-06T00:34:31.849Z,16.23
2023-04-06T00:35:28.433Z,16.08
2023-04-06T00:36:25.096Z,15.25
2023-04-06T00:37:21.722Z,15.52
2023-04-06T00:38:18.872Z,14.85
2023-04-06T00:39:15.473Z,16.23
2023-04-06T00:40:12.147Z,14.82
2023-04-06T00:41:08.851Z,15.32
2023-04-06T00:42:13.534Z,16.10
2023-04-06T00:43:10.438Z,15.82
2023-04-06T00:44:07.182Z,15.55
2023-04-06T00:45:04.212Z,16.73
2023-04-06T00:46:00.972Z,15.38
2023-04-06T00:46:57.702Z,15.32
2023-04-06T00:47:54.464Z,16.17
2023-04-06T00:48:51.371Z,16.48
2023-04-06T00:49:48.266Z,17.05
2023-04-06T00:50:44.996Z,15.15
2023-04-06T00:51:41.634Z,16.35
2023-04-06T00:52:38.542Z,16.70
2023-04-06T00:53:35.288Z,17.02
2023-04-06T00:54:31.946Z,15.77
2023-04-06T00:55:29.629Z,14.73
2023-04-06T00:56:27.277Z,16.88
2023-04-06T00:57:24.014Z,15.65
2023-04-06T00:58:20.672Z,15.82
2023-04-06T00:59:17.529Z,15.80
2023-04-06T01:00:14.956Z,15.07
2023-04-06T01:01:11.830Z,14.77
2023-04-06T01:02:09.369Z,15.60
2023-04-06T01:03:07.882Z,15.60
2023-04-06T01:04:04.786Z,15.35
2023-04-06T01:05:01.502Z,15.20
2023-04-06T01:05:59.373Z,15.32
2023-04-06T01:06:56.205Z,15.55
2023-04-06T01:07:52.880Z,16.25
2023-04-06T01:08:49.598Z,16.48
2023-04-06T01:09:46.266Z,15.75
2023-04-06T01:10:42.880Z,15.75
2023-04-06T01:11:39.556Z,16.20
2023-04-06T01:12:37.348Z,16.80
2023-04-06T01:13:34.059Z,16.35
2023-04-06T01:14:30.964Z,17.27
2023-04-06T01:15:28.338Z,16.25
2023-04-06T01:16:25.482Z,16.17
2023-04-06T01:17:22.849Z,16.67
2023-04-06T01:18:19.490Z,15.70
2023-04-06T01:19:16.195Z,16.35
2023-04-06T01:20:12.867Z,16.92
2023-04-06T01:21:11.276Z,16.90
2023-04-06T01:22:08.306Z,16.20
2023-04-06T01:23:04.937Z,16.60
2023-04-06T01:24:01.562Z,16.80
2023-04-06T01:24:58.294Z,16.73
2023-04-06T01:25:54.927Z,16.70
2023-04-06T01:26:51.571Z,16.77
2023-04-06T01:27:48.247Z,16.05
2023-04-06T01:28:45.714Z,16.58
2023-04-06T01:29:42.576Z,16.15
2023-04-06T01:30:39.217Z,16.02
2023-04-06T01:31:36.387Z,15.65
2023-04-06T01:32:33.029Z,16.02
2023-04-06T01:33:29.683Z,16.08
2023-04-06T01:34:26.380Z,16.40
2023-04-06T01:35:23.476Z,15.55
2023-04-06T01:36:20.746Z,15.07
2023-04-06T01:37:17.469Z,15.48
2023-04-06T01:38:14.146Z,16.15
2023-04-06T01:39:10.935Z,16.35
2023-04-06T01:40:08.292Z,15.25
2023-04-06T01:41:04.956Z,16.73
2023-04-06T01:42:01.575Z,16.05
2023-04-06T01:42:58.198Z,16.83
2023-04-06T01:43:55.683Z,16.83
2023-04-06T01:44:52.393Z,17.50
2023-04-06T01:45:48.983Z,17.27
2023-04-06T01:46:46.505Z,16.92
2023-04-06T01:47:43.222Z,19.23
2023-04-06T01:48:39.876Z,18.00
2023-04-06T01:49:36.820Z,18.70
2023-04-06T01:50:33.457Z,17.83
2023-04-06T01:51:30.115Z,19.80
2023-04-06T01:52:26.733Z,17.73
2023-04-06T01:53:23.434Z,17.55
2023-04-06T01:54:20.034Z,17.15
2023-04-06T01:55:16.945Z,17.83
2023-04-06T01:56:13.614Z,17.27
2023-04-06T01:57:11.869Z,18.42
2023-04-06T01:58:08.494Z,17.42
2023-04-06T01:59:05.358Z,17.70
2023-04-06T02:00:02.104Z,19.48
2023-04-06T02:00:58.756Z,18.90
2023-04-06T02:01:55.443Z,18.02
2023-04-06T02:02:52.255Z,18.80
2023-04-06T02:03:49.057Z,19.35
2023-04-06T02:04:45.902Z,18.92
2023-04-06T02:05:42.591Z,18.60
2023-04-06T02:06:39.232Z,18.50
2023-04-06T02:07:35.923Z,17.95
2023-04-06T02:08:32.554Z,17.13
2023-04-06T02:09:30.633Z,18.35
2023-04-06T02:10:27.400Z,19.67
2023-04-06T02:11:24.028Z,18.48
2023-04-06T02:12:20.873Z,17.90
2023-04-06T02:13:17.597Z,18.92
2023-04-06T02:14:14.196Z,19.45
2023-04-06T02:15:11.245Z,18.58
2023-04-06T02:16:08.029Z,18.90
2023-04-06T02:17:04.741Z,18.88
2023-04-06T02:18:01.811Z,18.67
2023-04-06T02:18:58.490Z,19.27
2023-04-06T02:19:55.059Z,18.98
2023-04-06T02:20:52.047Z,19.80
2023-04-06T02:21:48.597Z,20.42
2023-04-06T02:22:45.644Z,18.88
2023-04-06T02:23:42.258Z,19.65
2023-04-06T02:24:38.888Z,19.33
2023-04-06T02:25:35.894Z,19.38
2023-04-06T02:26:33.684Z,20.08
2023-04-06T02:27:30.284Z,19.95
2023-04-06T02:28:26.915Z,21.33
2023-04-06T02:29:23.526Z,20.63
2023-04-06T02:30:20.393Z,22.13
2023-04-06T02:31:17.167Z,20.33
2023-04-06T02:32:13.742Z,20.70
2023-04-06T02:33:10.391Z,21.10
2023-04-06T02:34:08.203Z,21.05
2023-04-06T02:35:05.140Z,21.08
2023-04-06T02:36:01.841Z,21.13
2023-04-06T02:36:58.534Z,21.52
2023-04-06T02:37:55.383Z,21.33
2023-04-06T02:38:52.814Z,18.80
2023-04-06T02:39:49.406Z,20.20
2023-04-06T02:40:46.099Z,19.20
2023-04-06T02:41:42.697Z,19.98
2023-04-06T02:42:39.360Z,20.65
2023-04-06T02:43:36.083Z,20.67
2023-04-06T02:44:32.712Z,20.08
2023-04-06T02:45:29.366Z,20.58
2023-04-06T02:46:26.613Z,20.52
2023-04-06T02:47:23.286Z,20.40
2023-04-06T02:48:19.958Z,20.58
2023-04-06T02:49:16.805Z,19.50
2023-04-06T02:50:13.493Z,19.80
2023-04-06T02:51:10.285Z,19.52
2023-04-06T02:52:06.914Z,20.77
2023-04-06T02:53:03.530Z,20.20
2023-04-06T02:54:00.508Z,21.40
2023-04-06T02:54:57.118Z,21.23
2023-04-06T02:55:53.673Z,21.23
2023-04-06T02:56:50.437Z,20.05
2023-04-06T02:57:47.067Z,20.70
2023-04-06T02:58:43.807Z,20.42
2023-04-06T02:59:40.558Z,20.23
2023-04-06T03:00:38.675Z,21.42
2023-04-06T03:01:35.482Z,21.05
2023-04-06T03:02:32.254Z,21.38
2023-04-06T03:03:29.062Z,21.63
2023-04-06T03:04:26.588Z,21.98
2023-04-06T03:05:23.161Z,21.20
2023-04-06T03:06:19.780Z,21.38
2023-04-06T03:07:16.521Z,21.77
2023-04-06T03:08:13.114Z,20.75
2023-04-06T03:09:10.007Z,21.27
2023-04-06T03:10:07.105Z,21.30
2023-04-06T03:11:03.812Z,20.70
2023-04-06T03:12:01.008Z,20.40
2023-04-06T03:12:57.630Z,21.40
2023-04-06T03:13:54.287Z,20.15
2023-04-06T03:14:50.968Z,21.45
2023-04-06T03:15:47.636Z,20.92
2023-04-06T03:16:44.728Z,20.02
2023-04-06T03:17:41.422Z,20.27
2023-04-06T03:18:38.790Z,18.52
2023-04-06T03:19:35.477Z,19.48
2023-04-06T03:20:32.050Z,20.23
2023-04-06T03:21:31.641Z,20.05
2023-04-06T03:22:29.725Z,21.02
2023-04-06T03:23:26.392Z,20.13
2023-04-06T03:24:23.064Z,20.23
2023-04-06T03:25:19.661Z,19.73
2023-04-06T03:26:16.233Z,20.33
2023-04-06T03:27:13.019Z,20.30
2023-04-06T03:28:09.698Z,19.95
2023-04-06T03:29:06.528Z,20.33
2023-04-06T03:30:03.763Z,20.40
2023-04-06T03:31:00.716Z,20.45
2023-04-06T03:31:57.425Z,20.48
2023-04-06T03:32:54.140Z,22.00
2023-04-06T03:33:50.875Z,21.30
2023-04-06T03:34:47.415Z,20.90
2023-04-06T03:35:44.104Z,20.35
2023-04-06T03:36:40.824Z,20.90
2023-04-06T03:37:37.490Z,22.92
2023-04-06T03:38:34.091Z,22.90
2023-04-06T03:39:31.103Z,22.30
2023-04-06T03:40:27.741Z,21.80
2023-04-06T03:41:24.352Z,20.65
2023-04-06T03:42:21.000Z,21.98
2023-04-06T03:43:17.641Z,22.75
2023-04-06T03:44:14.263Z,21.77
2023-04-06T03:45:11.254Z,20.38
2023-04-06T03:46:07.927Z,22.00
2023-04-06T03:47:04.769Z,22.08
2023-04-06T03:48:01.466Z,22.25
2023-04-06T03:48:58.440Z,22.08
2023-04-06T03:49:55.207Z,22.40
2023-04-06T03:50:51.787Z,22.05
2023-04-06T03:51:48.638Z,22.58
2023-04-06T03:52:45.300Z,22.77
2023-04-06T03:53:41.864Z,23.38
2023-04-06T03:54:38.619Z,22.48
2023-04-06T03:55:35.423Z,21.95
2023-04-06T03:56:32.174Z,20.92
2023-04-06T03:57:28.773Z,21.75
2023-04-06T03:58:25.365Z,22.92
2023-04-06T03:59:22.157Z,20.88
2023-04-06T04:00:18.973Z,22.13
2023-04-06T04:01:16.081Z,19.88
2023-04-06T04:02:12.798Z,20.15
2023-04-06T04:03:09.516Z,21.00
2023-04-06T04:04:06.452Z,21.52
2023-04-06T04:05:03.501Z,21.55
2023-04-06T04:06:00.315Z,21.75
2023-04-06T04:06:56.930Z,21.65
2023-04-06T04:07:53.717Z,20.90
2023-04-06T04:08:50.738Z,21.88
2023-04-06T04:09:47.347Z,20.88
2023-04-06T04:10:43.945Z,21.40
2023-04-06T04:11:40.850Z,21.90
2023-04-06T04:12:37.536Z,23.13
2023-04-06T04:13:34.156Z,22.35
2023-04-06T04:14:30.889Z,20.90
2023-04-06T04:15:27.689Z,21.05
2023-04-06T04:16:24.409Z,21.88
2023-04-06T04:17:22.933Z,21.52
2023-04-06T04:18:19.999Z,23.38
2023-04-06T04:19:16.650Z,23.10
2023-04-06T04:20:14.344Z,23.38
2023-04-06T04:21:11.127Z,24.63
2023-04-06T04:22:07.793Z,24.42
2023-04-06T04:23:04.456Z,23.80
2023-04-06T04:24:01.155Z,22.98
2023-04-06T04:24:57.739Z,23.60
2023-04-06T04:25:54.397Z,22.63
2023-04-06T04:26:51.076Z,21.92
2023-04-06T04:27:47.670Z,23.05
2023-04-06T04:28:44.322Z,23.63
2023-04-06T04:29:41.121Z,23.17
2023-04-06T04:30:37.742Z,23.73
2023-04-06T04:31:34.422Z,24.17
2023-04-06T04:32:31.553Z,23.17
2023-04-06T04:33:28.253Z,23.95
2023-04-06T04:34:26.250Z,24.73
2023-04-06T04:35:22.928Z,22.63
2023-04-06T04:36:19.646Z,22.35
2023-04-06T04:37:16.306Z,23.60
2023-04-06T04:38:12.904Z,21.90
2023-04-06T04:39:09.809Z,23.77
2023-04-06T04:40:07.412Z,22.38
2023-04-06T04:41:03.990Z,23.00
2023-04-06T04:42:00.755Z,23.20
2023-04-06T04:42:57.386Z,23.33
2023-04-06T04:43:53.973Z,22.65
2023-04-06T04:44:50.618Z,22.60
2023-04-06T04:45:47.285Z,23.02
2023-04-06T04:46:43.941Z,23.15
2023-04-06T04:47:40.719Z,23.52
2023-04-06T04:48:37.573Z,23.05
2023-04-06T04:49:34.190Z,23.23
2023-04-06T04:50:30.897Z,23.45
2023-04-06T04:51:29.569Z,22.65
2023-04-06T04:52:26.259Z,22.45
2023-04-06T04:53:25.077Z,22.65
2023-04-06T04:54:22.007Z,23.23
2023-04-06T04:55:18.892Z,22.17
2023-04-06T04:56:15.920Z,23.08
2023-04-06T04:57:12.530Z,23.90
2023-04-06T04:58:12.119Z,21.88
2023-04-06T04:59:08.916Z,23.13
2023-04-06T05:00:06.788Z,22.75
2023-04-06T05:01:03.463Z,22.20
2023-04-06T05:02:00.335Z,22.35
2023-04-06T05:02:57.127Z,21.17
2023-04-06T05:03:53.952Z,21.50
2023-04-06T05:04:50.685Z,23.45
2023-04-06T05:05:47.285Z,23.08
2023-04-06T05:06:43.945Z,22.02
2023-04-06T05:07:40.652Z,23.10
2023-04-06T05:08:37.243Z,20.63
2023-04-06T05:09:33.937Z,23.10
2023-04-06T05:10:30.570Z,21.17
2023-04-06T05:11:27.474Z,21.92
2023-04-06T05:12:24.118Z,22.40
2023-04-06T05:13:21.286Z,21.20
2023-04-06T05:14:18.375Z,22.60
2023-04-06T05:15:15.202Z,21.17
2023-04-06T05:16:12.218Z,21.92
2023-04-06T05:17:09.353Z,20.45
2023-04-06T05:18:07.052Z,22.70
2023-04-06T05:19:03.794Z,22.38
2023-04-06T05:20:00.508Z,20.23
2023-04-06T05:20:57.144Z,20.20
2023-04-06T05:21:53.924Z,20.27
2023-04-06T05:22:50.562Z,20.40
2023-04-06T05:23:47.174Z,21.00
2023-04-06T05:24:44.232Z,20.52
2023-04-06T05:25:41.742Z,20.90
2023-04-06T05:26:38.492Z,20.58
2023-04-06T05:27:35.674Z,20.92
2023-04-06T05:28:33.045Z,21.10
2023-04-06T05:29:30.645Z,21.60
2023-04-06T05:30:27.306Z,21.63
2023-04-06T05:31:23.949Z,20.85
2023-04-06T05:32:23.154Z,22.35
2023-04-06T05:33:20.030Z,22.90
2023-04-06T05:34:16.857Z,23.27
2023-04-06T05:35:13.618Z,21.85
2023-04-06T05:36:11.635Z,22.30
2023-04-06T05:37:09.697Z,21.58
2023-04-06T05:38:10.665Z,22.08
2023-04-06T05:39:08.243Z,21.15
2023-04-06T05:40:05.704Z,21.90
2023-04-06T05:41:02.302Z,21.30
2023-04-06T05:41:58.845Z,21.55
2023-04-06T05:42:55.435Z,21.98
2023-04-06T05:43:52.050Z,19.75
2023-04-06T05:44:48.686Z,21.35
2023-04-06T05:45:46.757Z,21.33
2023-04-06T05:46:43.346Z,21.75
2023-04-06T05:47:40.057Z,22.25
2023-04-06T05:48:37.021Z,21.33
2023-04-06T05:49:33.920Z,20.77
2023-04-06T05:50:30.580Z,20.60
2023-04-06T05:51:28.298Z,20.23
2023-04-06T05:52:25.241Z,20.02
2023-04-06T05:53:27.339Z,20.45
2023-04-06T05:54:24.138Z,21.45
2023-04-06T05:55:20.804Z,20.10
2023-04-06T05:56:17.706Z,20.13
2023-04-06T05:57:14.340Z,20.27
2023-04-06T05:58:11.205Z,21.10
2023-04-06T05:59:08.421Z,21.13
2023-04-06T06:00:07.823Z,20.15
2023-04-06T06:01:05.793Z,19.90
2023-04-06T06:02:02.613Z,20.65
2023-04-06T06:02:59.325Z,20.58
2023-04-06T06:03:56.001Z,20.25
2023-04-06T06:04:52.752Z,20.67
2023-04-06T06:05:49.444Z,18.17
2023-04-06T06:06:46.108Z,19.02
2023-04-06T06:07:42.777Z,19.05
2023-04-06T06:08:39.450Z,19.58
2023-04-06T06:09:36.147Z,19.67
2023-04-06T06:10:32.819Z,19.30
2023-04-06T06:11:29.456Z,20.65
2023-04-06T06:12:26.132Z,20.63
2023-04-06T06:13:23.555Z,20.55
2023-04-06T06:14:21.048Z,21.60
2023-04-06T06:15:17.779Z,20.98
2023-04-06T06:16:14.410Z,19.77
2023-04-06T06:17:11.125Z,21.40
2023-04-06T06:18:07.826Z,20.70
2023-04-06T06:19:04.564Z,20.75
2023-04-06T06:20:01.260Z,20.77
2023-04-06T06:20:57.877Z,19.95
2023-04-06T06:21:54.538Z,20.55
2023-04-06T06:22:51.216Z,21.13
2023-04-06T06:23:49.556Z,21.50
2023-04-06T06:24:46.259Z,21.48
2023-04-06T06:25:42.823Z,20.67
2023-04-06T06:26:40.511Z,19.88
2023-04-06T06:27:37.595Z,20.40
2023-04-06T06:28:34.358Z,21.17
2023-04-06T06:29:31.089Z,20.90
2023-04-06T06:30:28.926Z,20.50
2023-04-06T06:31:25.765Z,21.98
2023-04-06T06:32:22.569Z,19.50
2023-04-06T06:33:19.353Z,20.02
2023-04-06T06:34:16.014Z,19.58
2023-04-06T06:35:12.626Z,18.50
2023-04-06T06:36:09.408Z,20.60
2023-04-06T06:37:07.156Z,20.10
2023-04-06T06:38:03.831Z,19.77
2023-04-06T06:39:01.670Z,20.00
2023-04-06T06:39:58.249Z,19.38
2023-04-06T06:40:54.917Z,19.88
2023-04-06T06:41:51.579Z,19.52
2023-04-06T06:42:48.213Z,19.20
2023-04-06T06:43:44.904Z,19.05
2023-04-06T06:44:41.559Z,19.70
2023-04-06T06:45:38.357Z,18.35
2023-04-06T06:46:34.996Z,18.00
2023-04-06T06:48:28.355Z,18.52
2023-04-06T06:49:25.002Z,18.52
2023-04-06T06:50:21.764Z,19.30
2023-04-06T06:51:18.440Z,19.08
2023-04-06T06:52:15.650Z,19.02
2023-04-06T06:53:12.782Z,18.25
2023-04-06T06:54:09.694Z,18.05
2023-04-06T06:55:06.823Z,18.65
2023-04-06T06:56:03.754Z,17.65
2023-04-06T06:57:01.426Z,18.75
2023-04-06T06:57:58.099Z,19.00
2023-04-06T06:58:54.773Z,19.50
2023-04-06T06:59:51.450Z,20.10
2023-04-06T07:00:48.134Z,19.58
2023-04-06T07:01:44.815Z,19.90
2023-04-06T07:02:41.742Z,21.15
2023-04-06T07:03:38.350Z,19.80
2023-04-06T07:04:35.091Z,18.90
2023-04-06T07:05:31.836Z,19.55
2023-04-06T07:06:28.513Z,20.58
2023-04-06T07:07:25.156Z,20.45
2023-04-06T07:08:23.074Z,20.02
2023-04-06T07:09:20.156Z,20.15
2023-04-06T07:10:16.863Z,20.75
2023-04-06T07:11:13.534Z,21.55
2023-04-06T07:12:10.340Z,20.17
2023-04-06T07:13:07.227Z,21.15
2023-04-06T07:14:03.912Z,20.67
2023-04-06T07:15:00.638Z,19.77
2023-04-06T07:15:57.251Z,21.33
2023-04-06T07:16:53.931Z,21.42
2023-04-06T07:17:50.795Z,21.50
2023-04-06T07:18:47.617Z,22.85
2023-04-06T07:19:44.413Z,22.08
2023-04-06T07:20:41.343Z,22.17
2023-04-06T07:21:38.085Z,21.13
2023-04-06T07:22:34.785Z,22.20
2023-04-06T07:23:31.388Z,20.38
2023-04-06T07:24:28.034Z,21.20
2023-04-06T07:25:26.068Z,21.20
2023-04-06T07:26:22.772Z,20.80
2023-04-06T07:27:19.921Z,20.40
2023-04-06T07:28:16.583Z,22.02
2023-04-06T07:29:13.803Z,21.30
2023-04-06T07:30:10.919Z,20.67
2023-04-06T07:31:07.631Z,18.05
2023-04-06T07:32:04.346Z,19.50
2023-04-06T07:33:01.452Z,20.02
2023-04-06T07:33:58.223Z,19.80
2023-04-06T07:34:54.834Z,19.73
2023-04-06T07:35:52.567Z,20.70
2023-04-06T07:36:49.292Z,20.55
2023-04-06T07:37:45.923Z,20.13
2023-04-06T07:38:42.578Z,20.13
2023-04-06T07:39:39.241Z,20.75
2023-04-06T07:40:35.945Z,20.13
2023-04-06T07:41:32.650Z,19.98
2023-04-06T07:42:29.319Z,19.73
2023-04-06T07:43:26.237Z,19.85
2023-04-06T07:44:22.925Z,19.90
2023-04-06T07:45:19.873Z,21.10
2023-04-06T07:46:16.652Z,19.10
2023-04-06T07:47:13.349Z,19.10
2023-04-06T07:48:11.002Z,20.02
2023-04-06T07:49:07.660Z,18.92
2023-04-06T07:50:04.755Z,19.10
2023-04-06T07:51:03.198Z,18.58
2023-04-06T07:51:59.810Z,19.23
2023-04-06T07:52:56.429Z,19.33
2023-04-06T07:53:53.217Z,19.23
2023-04-06T07:54:50.557Z,19.83
2023-04-06T07:55:47.378Z,19.02
2023-04-06T07:56:44.080Z,19.50
2023-04-06T07:57:40.789Z,18.67
2023-04-06T07:58:37.394Z,19.00
2023-04-06T07:59:34.123Z,18.55
2023-04-06T08:00:31.450Z,18.38
2023-04-06T08:01:29.223Z,19.20
2023-04-06T08:02:26.012Z,18.45
2023-04-06T08:03:28.654Z,18.70
2023-04-06T08:04:25.606Z,18.83
2023-04-06T08:05:22.368Z,17.75
2023-04-06T08:06:18.985Z,19.83
2023-04-06T08:07:15.621Z,18.90
2023-04-06T08:08:12.274Z,18.15
2023-04-06T08:09:09.066Z,18.00
2023-04-06T08:10:06.078Z,17.77
2023-04-06T08:11:03.758Z,18.27
2023-04-06T08:12:00.398Z,17.58
2023-04-06T08:12:57.025Z,18.15
2023-04-06T08:13:53.786Z,18.23
2023-04-06T08:14:50.504Z,17.50
2023-04-06T08:15:47.232Z,16.13
2023-04-06T08:16:44.011Z,18.67
2023-04-06T08:17:40.843Z,17.05
2023-04-06T08:18:37.575Z,17.20
2023-04-06T08:19:34.269Z,17.55
2023-04-06T08:20:30.930Z,17.67
2023-04-06T08:21:28.565Z,17.35
2023-04-06T08:22:25.216Z,17.42
2023-04-06T08:23:22.031Z,16.92
2023-04-06T08:24:18.693Z,17.65
2023-04-06T08:25:15.499Z,17.02
2023-04-06T08:26:12.193Z,17.73
2023-04-06T08:27:08.874Z,17.00
2023-04-06T08:28:05.804Z,16.25
2023-04-06T08:29:02.446Z,16.13
2023-04-06T08:29:59.185Z,18.23
2023-04-06T08:30:55.913Z,16.17
2023-04-06T08:31:52.502Z,16.48
2023-04-06T08:32:49.169Z,17.35
2023-04-06T08:33:45.986Z,16.55
2023-04-06T08:34:42.653Z,17.33
2023-04-06T08:35:39.327Z,16.95
2023-04-06T08:36:36.043Z,17.20
2023-04-06T08:37:32.741Z,16.58
2023-04-06T08:38:29.356Z,16.67
2023-04-06T08:39:28.186Z,17.95
2023-04-06T08:40:25.297Z,17.33
2023-04-06T08:41:22.349Z,16.80
2023-04-06T08:42:23.018Z,16.77
2023-04-06T08:43:23.548Z,16.08
2023-04-06T08:44:20.530Z,15.57
2023-04-06T08:45:18.849Z,15.93
2023-04-06T08:46:16.280Z,15.77
2023-04-06T08:47:13.798Z,16.73
2023-04-06T08:48:10.734Z,15.05
2023-04-06T08:49:08.948Z,15.75
2023-04-06T08:50:06.232Z,14.82
2023-04-06T08:51:03.613Z,15.18
2023-04-06T08:52:01.549Z,15.70
2023-04-06T08:52:58.190Z,15.45
2023-04-06T08:53:56.391Z,15.30
2023-04-06T08:54:53.022Z,14.80
2023-04-06T08:55:49.864Z,14.55
2023-04-06T08:56:47.660Z,15.15
2023-04-06T08:57:45.330Z,15.95
2023-04-06T08:58:42.746Z,15.25
2023-04-06T08:59:40.537Z,15.57
2023-04-06T09:00:40.561Z,15.27
2023-04-06T09:01:42.418Z,14.77
2023-04-06T09:02:46.405Z,14.75
2023-04-06T09:03:44.675Z,14.65
2023-04-06T09:04:41.848Z,14.05
2023-04-06T09:05:39.765Z,13.68
2023-04-06T09:06:37.947Z,15.30
2023-04-06T09:07:34.632Z,13.77
2023-04-06T09:08:31.480Z,15.40
2023-04-06T09:09:28.193Z,14.90
2023-04-06T09:10:28.267Z,14.70
2023-04-06T09:11:25.046Z,13.27
2023-04-06T09:12:29.002Z,13.82
2023-04-06T09:13:25.808Z,14.07
2023-04-06T09:14:38.991Z,14.95
2023-04-06T09:15:36.295Z,15.27
2023-04-06T09:16:41.522Z,13.88
2023-04-06T09:17:38.200Z,14.60
2023-04-06T09:18:35.249Z,15.02
2023-04-06T09:19:32.106Z,14.90
2023-04-06T09:20:31.502Z,14.50
2023-04-06T09:21:28.387Z,14.45
2023-04-06T09:22:29.384Z,15.15
2023-04-06T09:23:26.082Z,15.77
2023-04-06T09:24:27.224Z,15.00
2023-04-06T09:25:26.612Z,14.85
2023-04-06T09:26:23.854Z,15.40
2023-04-06T09:27:33.302Z,15.20
2023-04-06T09:28:30.084Z,14.20
2023-04-06T09:29:28.106Z,15.38
2023-04-06T09:30:26.017Z,14.93
2023-04-06T09:31:28.494Z,14.63
2023-04-06T09:33:24.804Z,14.20
2023-04-06T09:34:23.871Z,14.70
2023-04-06T09:35:21.658Z,14.50
2023-04-06T09:36:18.564Z,14.90
2023-04-06T09:37:19.750Z,14.68
2023-04-06T09:38:16.468Z,14.00
2023-04-06T09:39:14.098Z,15.50
2023-04-06T09:40:11.246Z,15.43
2023-04-06T09:41:07.969Z,14.88
2023-04-06T09:42:04.609Z,14.63
2023-04-06T09:43:03.389Z,14.60
2023-04-06T09:44:11.026Z,13.90
2023-04-06T09:45:08.588Z,14.90
2023-04-06T09:46:05.697Z,14.05
2023-04-06T09:47:06.313Z,14.15
2023-04-06T09:48:04.934Z,15.60
2023-04-06T09:49:03.527Z,14.77
2023-04-06T09:50:01.398Z,15.65
2023-04-06T09:51:04.106Z,14.73
2023-04-06T09:52:03.285Z,14.63
2023-04-06T09:53:01.023Z,14.55
2023-04-06T09:54:02.384Z,14.75
2023-04-06T09:55:03.055Z,13.77
2023-04-06T09:56:03.931Z,15.35
2023-04-06T09:57:27.438Z,14.00
2023-04-06T09:58:27.445Z,15.10
2023-04-06T09:59:24.161Z,14.52
2023-04-06T10:00:23.485Z,14.40
2023-04-06T10:01:21.804Z,14.77
2023-04-06T10:02:49.195Z,13.45
2023-04-06T10:04:22.505Z,13.95
2023-04-06T10:05:31.275Z,13.57
2023-04-06T10:06:34.341Z,13.85
2023-04-06T10:07:32.389Z,14.00
2023-04-06T10:08:32.480Z,13.98
2023-04-06T10:09:36.656Z,13.60
2023-04-06T10:10:33.627Z,13.35
2023-04-06T10:11:30.665Z,12.57
2023-04-06T10:12:27.355Z,12.98
2023-04-06T10:13:25.946Z,12.90
2023-04-06T10:14:22.673Z,13.00
2023-04-06T10:15:21.913Z,13.77
2023-04-06T10:16:19.760Z,13.18
2023-04-06T10:17:16.504Z,13.45
2023-04-06T10:18:13.449Z,13.02
2023-04-06T10:19:26.004Z,13.00
2023-04-06T10:20:28.788Z,9.98
2023-04-06T10:21:28.527Z,12.98
2023-04-06T10:22:37.643Z,14.82
2023-04-06T10:23:38.027Z,11.93
2023-04-06T10:24:34.704Z,12.88
2023-04-06T10:25:32.936Z,12.23
2023-04-06T10:26:29.702Z,12.25
2023-04-06T10:27:30.736Z,11.65
2023-04-06T10:28:32.842Z,12.05
2023-04-06T10:29:29.742Z,12.00
2023-04-06T10:30:27.161Z,11.75
2023-04-06T10:31:28.737Z,12.27
2023-04-06T10:32:37.279Z,11.93
2023-04-06T10:33:34.348Z,11.95
2023-04-06T10:34:36.300Z,10.60
2023-04-06T10:35:41.734Z,11.57
2023-04-06T10:36:38.908Z,11.30
2023-04-06T10:38:01.465Z,11.32
2023-04-06T10:39:03.658Z,11.40
2023-04-06T10:40:00.365Z,12.55
2023-04-06T10:41:08.225Z,11.88
2023-04-06T10:42:07.878Z,12.48
2023-04-06T10:43:12.782Z,12.07
2023-04-06T10:44:18.845Z,11.98
2023-04-06T10:45:28.855Z,12.05
2023-04-06T10:46:31.542Z,13.07
2023-04-06T10:47:28.286Z,13.75
2023-04-06T10:48:25.368Z,13.18
2023-04-06T10:49:22.291Z,12.00
2023-04-06T10:50:19.198Z,12.38
2023-04-06T10:51:17.897Z,11.63
2023-04-06T10:52:14.650Z,12.07
2023-04-06T10:53:11.378Z,11.77
2023-04-06T10:54:08.806Z,11.15
2023-04-06T10:55:07.112Z,11.40
2023-04-06T10:56:05.125Z,11.05
2023-04-06T10:57:02.065Z,13.00
2023-04-06T10:57:58.702Z,11.35
2023-04-06T10:58:58.936Z,11.93
2023-04-06T10:59:55.680Z,10.75
2023-04-06T11:00:52.764Z,10.52
2023-04-06T11:01:49.926Z,11.63
2023-04-06T11:02:47.313Z,11.27
2023-04-06T11:03:48.809Z,11.65
2023-04-06T11:04:55.303Z,9.98
2023-04-06T11:05:52.615Z,10.18
2023-04-06T11:06:50.458Z,10.77
2023-04-06T11:07:47.143Z,10.98
2023-04-06T11:08:43.891Z,10.80
2023-04-06T11:09:40.678Z,11.43
2023-04-06T11:10:37.377Z,9.82
2023-04-06T11:11:34.049Z,10.52
2023-04-06T11:12:31.943Z,10.23
2023-04-06T11:13:41.936Z,9.80
2023-04-06T11:14:39.880Z,9.25
2023-04-06T11:15:38.222Z,8.85
2023-04-06T11:16:36.237Z,9.15
2023-04-06T11:17:35.003Z,8.82
2023-04-06T11:18:32.762Z,8.52
2023-04-06T11:19:29.551Z,9.07
2023-04-06T11:20:26.290Z,8.40
2023-04-06T11:21:47.717Z,9.32
2023-04-06T11:22:52.770Z,8.35
2023-04-06T11:23:49.387Z,9.27
2023-04-06T11:24:46.161Z,9.23
2023-04-06T11:25:52.129Z,9.95
2023-04-06T11:26:50.044Z,8.73
2023-04-06T11:27:48.619Z,7.60
2023-04-06T11:28:45.503Z,8.20
2023-04-06T11:29:42.255Z,8.88
2023-04-06T11:30:39.297Z,8.52
2023-04-06T11:31:43.816Z,8.23
2023-04-06T11:32:45.271Z,9.23
2023-04-06T11:33:42.056Z,8.97
2023-04-06T11:34:40.645Z,9.43
2023-04-06T11:35:38.477Z,9.35
2023-04-06T11:36:36.928Z,9.73
2023-04-06T11:37:34.038Z,10.05
2023-04-06T11:38:31.894Z,9.50
2023-04-06T11:39:29.918Z,13.00
2023-04-06T11:40:28.966Z,9.23
2023-04-06T11:41:27.650Z,8.60
2023-04-06T11:42:29.254Z,9.85
2023-04-06T11:43:30.393Z,10.20
2023-04-06T11:44:41.271Z,9.00
2023-04-06T11:45:44.078Z,8.75
2023-04-06T11:46:41.007Z,9.07
2023-04-06T11:47:43.198Z,9.45
2023-04-06T11:48:46.465Z,8.32
2023-04-06T11:50:40.770Z,9.13
2023-04-06T11:51:38.350Z,10.43
2023-04-06T11:52:35.248Z,9.85
2023-04-06T11:53:32.053Z,9.25
2023-04-06T11:54:36.262Z,9.18
2023-04-06T11:55:39.177Z,10.07
2023-04-06T11:56:35.892Z,9.07
2023-04-06T11:57:32.560Z,10.48
2023-04-06T11:58:30.886Z,8.85
2023-04-06T11:59:28.299Z,9.70
2023-04-06T12:00:25.041Z,10.07
2023-04-06T12:01:21.660Z,12.02
2023-04-06T12:02:19.049Z,8.70
2023-04-06T12:03:16.038Z,9.13
2023-04-06T12:04:13.024Z,9.38
2023-04-06T12:05:10.435Z,9.00
2023-04-06T12:06:07.136Z,9.43
2023-04-06T12:07:04.065Z,9.75
2023-04-06T12:08:02.710Z,9.27
2023-04-06T12:09:00.360Z,10.23
2023-04-06T12:09:57.212Z,10.80
2023-04-06T12:10:53.878Z,10.95
2023-04-06T12:11:50.928Z,10.93
2023-04-06T12:12:47.873Z,10.02
2023-04-06T12:13:44.520Z,9.48
2023-04-06T12:14:41.374Z,9.27
2023-04-06T12:15:38.274Z,10.80
2023-04-06T12:16:35.986Z,9.80
2023-04-06T12:17:32.796Z,10.00
2023-04-06T12:18:31.002Z,10.50
2023-04-06T12:19:27.909Z,9.13
2023-04-06T12:20:26.516Z,10.30
2023-04-06T12:21:24.265Z,11.63
2023-04-06T12:22:20.978Z,10.25
2023-04-06T12:23:17.655Z,11.10
2023-04-06T12:24:14.297Z,10.05
2023-04-06T12:25:11.409Z,9.40
2023-04-06T12:26:13.191Z,9.40
2023-04-06T12:27:12.003Z,10.13
2023-04-06T12:28:08.739Z,9.98